createdAt,value
2018-03-31T00:00:19.367Z,5.30
2018-03-31T00:02:47.117Z,5.30
2018-03-31T00:05:14.771Z,5.40
2018-03-31T00:07:42.452Z,5.30
2018-03-31T00:10:10.095Z,5.30
2018-03-31T00:12:38.504Z,5.30
2018-03-31T00:15:06.200Z,5.30
2018-03-31T00:17:33.839Z,5.20
2018-03-31T00:20:01.620Z,5.20
2018-03-31T00:22:29.999Z,5.20
2018-03-31T00:24:58.407Z,5.20
2018-03-31T00:27:27.031Z,5.20
2018-03-31T00:29:54.671Z,5.20
2018-03-31T00:32:22.303Z,5.20
2018-03-31T00:34:49.945Z,5.20
2018-03-31T00:37:18.335Z,5.20
2018-03-31T00:39:45.983Z,5.20
2018-03-31T00:42:14.370Z,5.20
2018-03-31T00:44:42.771Z,5.20
2018-03-31T00:47:10.395Z,5.10
2018-03-31T00:49:38.804Z,5.10
2018-03-31T00:52:06.439Z,5.00
2018-03-31T00:54:34.926Z,5.00
2018-03-31T00:57:03.967Z,5.00
2018-03-31T00:59:31.774Z,5.00
2018-03-31T01:01:59.409Z,5.10
2018-03-31T01:04:27.065Z,5.00
2018-03-31T01:06:54.764Z,5.00
2018-03-31T01:09:23.161Z,4.90
2018-03-31T01:11:50.812Z,4.90
2018-03-31T01:14:19.204Z,5.00
2018-03-31T01:16:46.828Z,5.00
2018-03-31T01:19:14.474Z,5.00
2018-03-31T01:21:42.103Z,5.00
2018-03-31T01:24:09.742Z,4.90
2018-03-31T01:26:38.141Z,4.90
2018-03-31T01:29:05.771Z,4.80
2018-03-31T01:31:34.181Z,4.80
2018-03-31T01:34:01.849Z,4.80
2018-03-31T01:36:29.469Z,4.70
2018-03-31T01:38:58.126Z,4.80
2018-03-31T01:41:26.141Z,4.70
2018-03-31T01:43:53.777Z,4.80
2018-03-31T01:46:21.400Z,4.80
2018-03-31T01:48:49.219Z,4.70
2018-03-31T01:51:16.853Z,4.70
2018-03-31T01:53:44.479Z,4.60
2018-03-31T01:56:12.153Z,4.60
2018-03-31T01:58:40.506Z,4.50
2018-03-31T02:01:08.255Z,4.50
2018-03-31T02:03:36.683Z,4.50
2018-03-31T02:06:04.528Z,4.50
2018-03-31T02:08:32.273Z,4.50
2018-03-31T02:10:59.918Z,4.40
2018-03-31T02:13:28.415Z,4.40
2018-03-31T02:15:56.058Z,4.40
2018-03-31T02:18:24.472Z,4.40
2018-03-31T02:20:52.246Z,4.40
2018-03-31T02:23:19.868Z,4.40
2018-03-31T02:25:48.277Z,4.50
2018-03-31T02:28:15.912Z,4.40
2018-03-31T02:30:44.287Z,4.40
2018-03-31T02:33:12.714Z,4.50
2018-03-31T02:35:40.353Z,4.40
2018-03-31T02:38:08.071Z,4.40
2018-03-31T02:40:35.753Z,4.40
2018-03-31T02:43:04.142Z,4.40
2018-03-31T02:45:31.779Z,4.40
2018-03-31T02:48:00.249Z,4.40
2018-03-31T02:50:27.899Z,4.40
2018-03-31T02:55:29.585Z,4.30
2018-03-31T02:57:57.211Z,4.30
2018-03-31T03:00:25.652Z,4.20
2018-03-31T03:02:53.823Z,4.20
2018-03-31T03:05:22.258Z,4.10
2018-03-31T03:07:49.888Z,4.10
2018-03-31T03:10:17.525Z,4.10
2018-03-31T03:12:45.934Z,4.10
2018-03-31T03:15:14.925Z,4.00
2018-03-31T03:17:42.795Z,4.00
2018-03-31T03:20:10.697Z,4.00
2018-03-31T03:22:38.466Z,4.10
2018-03-31T03:25:06.126Z,4.20
2018-03-31T03:27:33.746Z,4.40
2018-03-31T03:30:01.446Z,4.50
2018-03-31T03:32:29.099Z,4.60
2018-03-31T03:34:56.771Z,4.80
2018-03-31T03:37:24.411Z,4.90
2018-03-31T03:39:52.566Z,4.90
2018-03-31T03:42:20.188Z,5.00
2018-03-31T03:44:48.660Z,5.20
2018-03-31T03:47:16.321Z,5.10
2018-03-31T03:49:43.959Z,5.20
2018-03-31T03:52:11.673Z,5.20
2018-03-31T03:54:39.304Z,5.20
2018-03-31T03:57:07.062Z,5.10
2018-03-31T03:59:34.689Z,5.20
2018-03-31T04:02:02.401Z,5.20
2018-03-31T04:04:30.809Z,5.10
2018-03-31T04:06:58.457Z,5.10
2018-03-31T04:09:27.503Z,4.90
2018-03-31T04:11:55.199Z,4.90
2018-03-31T04:14:23.695Z,4.60
2018-03-31T04:16:52.093Z,4.50
2018-03-31T04:19:19.745Z,4.50
2018-03-31T04:21:48.046Z,4.40
2018-03-31T04:24:15.688Z,4.40
2018-03-31T04:26:43.360Z,4.30
2018-03-31T04:29:11.044Z,4.30
2018-03-31T04:31:38.682Z,4.30
2018-03-31T04:34:06.311Z,4.30
2018-03-31T04:36:33.961Z,4.30
2018-03-31T04:39:01.736Z,4.20
2018-03-31T04:41:29.358Z,4.10
2018-03-31T04:43:57.012Z,4.00
2018-03-31T04:46:24.660Z,3.90
2018-03-31T04:48:52.303Z,3.80
2018-03-31T04:51:20.035Z,3.80
2018-03-31T04:53:48.728Z,3.70
2018-03-31T04:56:16.382Z,3.70
2018-03-31T04:58:44.001Z,3.70
2018-03-31T05:01:12.280Z,3.60
2018-03-31T05:03:40.087Z,3.50
2018-03-31T05:06:07.724Z,3.50
2018-03-31T05:08:35.510Z,3.50
2018-03-31T05:11:03.144Z,3.50
2018-03-31T05:13:30.806Z,3.50
2018-03-31T05:15:59.374Z,3.50
2018-03-31T05:18:27.014Z,3.50
2018-03-31T05:20:55.408Z,3.60
2018-03-31T05:23:23.052Z,3.60
2018-03-31T05:25:50.696Z,3.70
2018-03-31T05:28:19.082Z,3.70
2018-03-31T05:30:46.911Z,3.70
2018-03-31T05:33:14.542Z,3.80
2018-03-31T05:35:42.200Z,3.80
2018-03-31T05:38:09.837Z,3.90
2018-03-31T05:40:38.232Z,3.80
2018-03-31T05:43:05.872Z,3.80
2018-03-31T05:45:33.690Z,3.70
2018-03-31T05:48:01.342Z,3.70
2018-03-31T05:50:30.237Z,3.70
2018-03-31T05:52:57.903Z,3.70
2018-03-31T05:55:25.637Z,3.70
2018-03-31T05:57:53.261Z,3.70
2018-03-31T06:00:21.668Z,3.80
2018-03-31T06:02:49.321Z,3.70
2018-03-31T06:05:17.770Z,4.10
2018-03-31T06:07:46.214Z,4.40
2018-03-31T06:10:14.000Z,4.40
2018-03-31T06:12:41.627Z,4.70
2018-03-31T06:15:09.933Z,5.00
2018-03-31T06:17:37.622Z,5.30
2018-03-31T06:20:05.446Z,5.40
2018-03-31T06:22:33.105Z,5.60
2018-03-31T06:25:00.904Z,5.70
2018-03-31T06:27:28.552Z,5.90
2018-03-31T06:29:56.187Z,6.10
2018-03-31T06:32:25.017Z,6.10
2018-03-31T06:34:52.666Z,6.30
2018-03-31T06:37:20.493Z,6.30
2018-03-31T06:40:01.740Z,6.50
2018-03-31T06:42:29.895Z,6.50
2018-03-31T06:44:57.503Z,6.60
2018-03-31T06:47:25.135Z,6.70
2018-03-31T06:49:54.251Z,6.90
2018-03-31T06:52:22.681Z,6.90
2018-03-31T06:54:51.227Z,6.90
2018-03-31T06:57:18.868Z,6.90
2018-03-31T06:59:47.266Z,7.00
2018-03-31T07:02:15.334Z,7.00
2018-03-31T07:04:42.998Z,7.00
2018-03-31T07:07:10.630Z,7.10
2018-03-31T07:09:39.047Z,7.30
2018-03-31T07:12:06.796Z,7.20
2018-03-31T07:14:35.174Z,7.40
2018-03-31T07:17:02.849Z,7.40
2018-03-31T07:19:30.617Z,7.50
2018-03-31T07:21:58.252Z,7.50
2018-03-31T07:24:25.943Z,7.60
2018-03-31T07:26:53.613Z,7.70
2018-03-31T07:29:21.234Z,7.80
2018-03-31T07:31:49.630Z,7.90
2018-03-31T07:34:17.294Z,7.90
2018-03-31T07:36:44.918Z,8.00
2018-03-31T07:39:12.536Z,8.10
2018-03-31T07:41:40.463Z,8.20
2018-03-31T07:44:08.870Z,8.30
2018-03-31T07:46:36.493Z,8.30
2018-03-31T07:49:04.140Z,8.40
2018-03-31T07:51:31.771Z,8.50
2018-03-31T07:53:59.402Z,8.60
2018-03-31T07:56:27.850Z,8.80
2018-03-31T07:58:55.466Z,8.70
2018-03-31T08:01:23.184Z,8.80
2018-03-31T08:03:50.818Z,8.70
2018-03-31T08:06:18.693Z,8.60
2018-03-31T08:08:46.354Z,8.60
2018-03-31T08:11:13.993Z,8.60
2018-03-31T08:13:42.019Z,8.70
2018-03-31T08:16:10.464Z,8.80
2018-03-31T08:18:38.150Z,8.80
2018-03-31T08:21:05.795Z,8.90
2018-03-31T08:23:33.599Z,9.30
2018-03-31T08:26:01.240Z,9.60
2018-03-31T08:28:29.727Z,9.90
2018-03-31T08:30:57.380Z,9.90
2018-03-31T08:33:25.018Z,10.10
2018-03-31T08:35:52.716Z,10.50
2018-03-31T08:38:21.142Z,10.90
2018-03-31T08:40:48.780Z,10.90
2018-03-31T08:43:16.411Z,11.00
2018-03-31T08:45:44.818Z,11.30
2018-03-31T08:48:12.466Z,11.20
2018-03-31T08:50:40.890Z,11.30
2018-03-31T08:53:08.495Z,11.30
2018-03-31T08:55:36.916Z,11.40
2018-03-31T08:58:04.691Z,11.30
2018-03-31T09:00:32.316Z,11.40
2018-03-31T09:02:59.954Z,11.40
2018-03-31T09:05:28.348Z,11.30
2018-03-31T09:07:56.744Z,11.20
2018-03-31T09:10:24.634Z,11.20
2018-03-31T09:12:52.269Z,11.00
2018-03-31T09:15:19.892Z,10.80
2018-03-31T09:17:47.771Z,10.60
2018-03-31T09:20:16.185Z,10.10
2018-03-31T09:22:45.782Z,10.10
2018-03-31T09:25:11.506Z,9.90
2018-03-31T09:27:39.242Z,9.80
2018-03-31T09:30:07.646Z,9.70
2018-03-31T09:32:35.311Z,9.70
2018-03-31T09:35:02.928Z,9.70
2018-03-31T09:37:30.555Z,9.80
2018-03-31T09:39:58.230Z,10.00
2018-03-31T09:42:25.873Z,10.30
2018-03-31T09:44:54.248Z,10.60
2018-03-31T09:47:21.990Z,10.50
2018-03-31T09:49:49.683Z,10.60
2018-03-31T09:52:17.291Z,10.70
2018-03-31T09:54:45.700Z,11.20
2018-03-31T09:57:13.335Z,11.10
2018-03-31T09:59:41.725Z,11.80
2018-03-31T10:02:09.442Z,11.80
2018-03-31T10:04:37.266Z,12.00
2018-03-31T10:07:04.904Z,12.10
2018-03-31T10:09:33.777Z,12.10
2018-03-31T10:12:01.417Z,12.10
2018-03-31T10:14:29.070Z,12.20
2018-03-31T10:16:56.717Z,12.40
2018-03-31T10:19:24.407Z,12.70
2018-03-31T10:21:52.056Z,13.00
2018-03-31T10:24:19.888Z,13.30
2018-03-31T10:26:47.531Z,13.40
2018-03-31T10:29:15.936Z,14.00
2018-03-31T10:31:43.558Z,13.90
2018-03-31T10:34:11.234Z,14.10
2018-03-31T10:36:39.728Z,13.80
2018-03-31T10:39:07.874Z,13.80
2018-03-31T10:41:35.492Z,13.70
2018-03-31T10:44:03.114Z,13.50
2018-03-31T10:46:32.377Z,13.30
2018-03-31T10:49:00.009Z,13.20
2018-03-31T10:51:27.640Z,13.30
2018-03-31T10:53:56.083Z,13.50
2018-03-31T10:56:23.734Z,13.50
2018-03-31T10:58:51.364Z,13.50
2018-03-31T11:01:19.011Z,13.00
2018-03-31T11:03:46.736Z,12.70
2018-03-31T11:06:14.367Z,12.50
2018-03-31T11:08:42.662Z,12.50
2018-03-31T11:11:10.304Z,12.40
2018-03-31T11:13:37.932Z,12.20
2018-03-31T11:16:05.696Z,12.10
2018-03-31T11:18:34.678Z,12.20
2018-03-31T11:21:03.065Z,12.30
2018-03-31T11:23:30.714Z,12.30
2018-03-31T11:25:59.111Z,12.30
2018-03-31T11:28:27.788Z,12.40
2018-03-31T11:30:56.171Z,12.50
2018-03-31T11:33:23.825Z,12.50
2018-03-31T11:35:53.025Z,12.60
2018-03-31T11:38:21.469Z,12.60
2018-03-31T11:40:49.977Z,12.80
2018-03-31T11:43:18.369Z,13.00
2018-03-31T11:45:46.027Z,12.90
2018-03-31T11:48:14.428Z,13.20
2018-03-31T11:50:42.118Z,13.20
2018-03-31T11:53:09.771Z,13.20
2018-03-31T11:55:37.405Z,13.30
2018-03-31T11:58:05.034Z,13.40
2018-03-31T12:00:32.675Z,13.50
2018-03-31T12:03:00.309Z,13.60
2018-03-31T12:05:27.957Z,13.80
2018-03-31T12:07:55.604Z,13.90
2018-03-31T12:10:23.432Z,13.90
2018-03-31T12:12:51.097Z,14.00
2018-03-31T12:15:18.756Z,14.00
2018-03-31T12:17:46.377Z,13.90
2018-03-31T12:20:14.002Z,13.90
2018-03-31T12:22:42.415Z,13.70
2018-03-31T12:25:10.876Z,13.80
2018-03-31T12:27:40.468Z,13.90
2018-03-31T12:30:09.102Z,13.80
2018-03-31T12:32:36.749Z,13.80
2018-03-31T12:35:04.483Z,13.80
2018-03-31T12:37:32.929Z,14.10
2018-03-31T12:40:00.547Z,14.10
2018-03-31T12:42:28.254Z,14.30
2018-03-31T12:44:56.856Z,14.70
2018-03-31T12:47:24.485Z,14.70
2018-03-31T12:49:52.109Z,14.80
2018-03-31T12:52:19.759Z,15.00
2018-03-31T12:54:48.144Z,15.00
2018-03-31T12:57:15.764Z,15.00
2018-03-31T12:59:43.401Z,14.90
2018-03-31T13:02:11.014Z,15.00
2018-03-31T13:04:39.557Z,15.00
2018-03-31T13:07:07.199Z,15.00
2018-03-31T13:09:35.001Z,15.00
2018-03-31T13:12:02.854Z,15.00
2018-03-31T13:14:30.496Z,15.00
2018-03-31T13:16:58.138Z,15.00
2018-03-31T13:19:25.764Z,15.10
2018-03-31T13:21:53.505Z,15.20
2018-03-31T13:24:21.115Z,15.00
2018-03-31T13:26:49.518Z,14.90
2018-03-31T13:29:17.172Z,15.00
2018-03-31T13:31:44.798Z,15.10
2018-03-31T13:34:13.198Z,15.20
2018-03-31T13:36:40.810Z,15.20
2018-03-31T13:39:08.455Z,15.40
2018-03-31T13:41:36.106Z,15.70
2018-03-31T13:44:03.758Z,15.90
2018-03-31T13:46:31.387Z,16.00
2018-03-31T13:48:59.786Z,16.00
2018-03-31T13:51:27.482Z,16.00
2018-03-31T13:53:55.189Z,15.90
2018-03-31T13:56:24.517Z,15.70
2018-03-31T13:58:52.211Z,15.70
2018-03-31T14:01:19.862Z,15.50
2018-03-31T14:03:47.566Z,15.30
2018-03-31T14:06:15.199Z,15.20
2018-03-31T14:08:42.840Z,15.20
2018-03-31T14:11:10.555Z,15.10
2018-03-31T14:13:38.170Z,15.10
2018-03-31T14:16:05.819Z,15.10
2018-03-31T14:18:33.612Z,15.10
2018-03-31T14:21:01.257Z,14.90
2018-03-31T14:23:28.952Z,14.70
2018-03-31T14:25:56.611Z,14.50
2018-03-31T14:28:24.256Z,14.40
2018-03-31T14:30:51.901Z,14.30
2018-03-31T14:33:19.542Z,14.20
2018-03-31T14:35:47.185Z,14.00
2018-03-31T14:38:15.583Z,13.90
2018-03-31T14:40:43.207Z,13.90
2018-03-31T14:43:11.615Z,13.70
2018-03-31T14:45:39.244Z,13.70
2018-03-31T14:48:06.882Z,13.60
2018-03-31T14:50:34.563Z,13.70
2018-03-31T14:53:02.311Z,13.80
2018-03-31T14:55:29.971Z,13.80
2018-03-31T14:57:57.684Z,13.70
2018-03-31T15:00:25.314Z,13.50
2018-03-31T15:02:53.921Z,13.00
2018-03-31T15:05:21.554Z,12.50
2018-03-31T15:07:49.182Z,12.10
2018-03-31T15:10:16.905Z,11.80
2018-03-31T15:12:45.286Z,11.50
2018-03-31T15:15:13.721Z,11.40
2018-03-31T15:17:42.143Z,11.40
2018-03-31T15:20:10.540Z,11.30
2018-03-31T15:22:38.157Z,11.30
2018-03-31T15:25:05.785Z,11.20
2018-03-31T15:27:33.574Z,11.00
2018-03-31T15:30:01.191Z,10.80
2018-03-31T15:32:28.802Z,10.50
2018-03-31T15:34:56.646Z,10.20
2018-03-31T15:37:24.359Z,10.00
2018-03-31T15:39:52.101Z,9.80
2018-03-31T15:42:19.728Z,9.80
2018-03-31T15:44:47.389Z,9.80
2018-03-31T15:47:15.010Z,9.80
2018-03-31T15:49:43.406Z,9.80
2018-03-31T15:52:11.031Z,9.80
2018-03-31T15:54:38.647Z,9.80
2018-03-31T15:57:06.287Z,9.80
2018-03-31T15:59:33.906Z,9.80
2018-03-31T16:02:01.518Z,9.80
2018-03-31T16:04:29.175Z,9.80
2018-03-31T16:06:56.776Z,9.80
2018-03-31T16:09:24.393Z,9.70
2018-03-31T16:11:52.038Z,9.70
2018-03-31T16:14:19.769Z,9.60
2018-03-31T16:16:47.391Z,9.60
2018-03-31T16:19:15.105Z,9.60
2018-03-31T16:21:43.484Z,9.70
2018-03-31T16:24:11.864Z,9.80
2018-03-31T16:26:39.573Z,9.80
2018-03-31T16:29:07.437Z,9.80
2018-03-31T16:31:35.064Z,9.80
2018-03-31T16:34:02.685Z,9.90
2018-03-31T16:36:30.310Z,9.90
2018-03-31T16:38:58.031Z,9.90
2018-03-31T16:41:25.668Z,9.90
2018-03-31T16:43:53.291Z,9.90
2018-03-31T16:46:20.919Z,9.80
2018-03-31T16:48:48.556Z,9.70
2018-03-31T16:51:16.181Z,9.60
2018-03-31T16:53:43.807Z,9.60
2018-03-31T16:56:11.427Z,9.60
2018-03-31T16:58:39.707Z,9.60
2018-03-31T17:01:08.008Z,9.60
2018-03-31T17:03:35.642Z,9.60
2018-03-31T17:06:03.267Z,9.70
2018-03-31T17:08:31.086Z,9.70
2018-03-31T17:10:58.813Z,9.80
2018-03-31T17:13:26.422Z,9.90
2018-03-31T17:15:54.055Z,10.00
2018-03-31T17:18:21.693Z,10.00
2018-03-31T17:20:49.325Z,10.10
2018-03-31T17:23:17.714Z,10.10
2018-03-31T17:25:45.358Z,10.10
2018-03-31T17:28:12.989Z,10.10
2018-03-31T17:30:40.618Z,10.00
2018-03-31T17:33:08.287Z,10.00
2018-03-31T17:35:35.902Z,9.90
2018-03-31T17:38:03.700Z,9.80
2018-03-31T17:40:31.330Z,9.80
2018-03-31T17:42:59.953Z,9.70
2018-03-31T17:45:27.575Z,9.70
2018-03-31T17:47:55.980Z,9.60
2018-03-31T17:50:23.614Z,9.60
2018-03-31T17:52:51.996Z,9.60
2018-03-31T17:55:20.496Z,9.60
2018-03-31T17:57:48.063Z,9.50
2018-03-31T18:00:15.691Z,9.60
2018-03-31T18:02:43.322Z,9.50
2018-03-31T18:05:10.952Z,9.50
2018-03-31T18:07:38.569Z,9.50
2018-03-31T18:10:06.190Z,9.40
2018-03-31T18:12:34.544Z,9.40
2018-03-31T18:15:02.166Z,9.40
2018-03-31T18:17:29.794Z,9.30
2018-03-31T18:19:57.431Z,9.30
2018-03-31T18:22:25.051Z,9.30
2018-03-31T18:24:52.697Z,9.30
2018-03-31T18:27:20.471Z,9.20
2018-03-31T18:29:48.209Z,9.30
2018-03-31T18:32:15.829Z,9.30
2018-03-31T18:34:44.316Z,9.20
2018-03-31T18:37:11.941Z,9.20
2018-03-31T18:39:39.550Z,9.20
2018-03-31T18:42:08.094Z,9.20
2018-03-31T18:44:36.489Z,9.20
2018-03-31T18:47:04.878Z,9.10
2018-03-31T18:49:32.514Z,9.10
2018-03-31T18:52:00.975Z,9.00
2018-03-31T18:54:28.735Z,9.00
2018-03-31T18:56:56.507Z,9.00
2018-03-31T18:59:24.430Z,8.90
2018-03-31T19:01:52.178Z,8.90
2018-03-31T19:04:20.573Z,8.80
2018-03-31T19:06:48.215Z,8.80
2018-03-31T19:09:16.618Z,8.70
2018-03-31T19:11:44.238Z,8.70
2018-03-31T19:14:12.622Z,8.70
2018-03-31T19:16:46.624Z,8.60
2018-03-31T19:19:14.239Z,8.60
2018-03-31T19:21:41.874Z,8.70
2018-03-31T19:24:09.506Z,8.60
2018-03-31T19:26:37.902Z,8.50
2018-03-31T19:29:06.286Z,8.40
2018-03-31T19:31:33.933Z,8.40
2018-03-31T19:34:02.343Z,8.40
2018-03-31T19:36:29.962Z,8.40
2018-03-31T19:38:57.601Z,8.40
2018-03-31T19:41:25.231Z,8.40
2018-03-31T19:43:53.015Z,8.50
2018-03-31T19:46:20.611Z,8.50
2018-03-31T19:48:48.220Z,8.50
2018-03-31T19:51:15.849Z,8.50
2018-03-31T19:53:44.482Z,8.30
2018-03-31T19:56:12.094Z,8.30
2018-03-31T19:58:41.185Z,8.30
2018-03-31T20:01:09.381Z,8.30
2018-03-31T20:03:37.010Z,8.30
2018-03-31T20:06:04.639Z,8.20
2018-03-31T20:08:32.274Z,8.10
2018-03-31T20:10:59.909Z,7.90
2018-03-31T20:13:28.291Z,7.70
2018-03-31T20:15:56.692Z,7.60
2018-03-31T20:18:24.311Z,7.60
2018-03-31T20:20:52.765Z,7.50
2018-03-31T20:23:20.396Z,7.50
2018-03-31T20:25:48.105Z,7.40
2018-03-31T20:28:15.870Z,7.40
2018-03-31T20:30:43.493Z,7.40
2018-03-31T20:33:11.128Z,7.40
2018-03-31T20:35:38.755Z,7.50
2018-03-31T20:38:06.403Z,7.60
2018-03-31T20:40:34.074Z,7.60
2018-03-31T20:43:01.720Z,7.70
2018-03-31T20:45:29.342Z,7.70
2018-03-31T20:47:56.972Z,7.60
2018-03-31T20:50:24.740Z,7.60
2018-03-31T20:52:52.379Z,7.60
2018-03-31T20:55:20.077Z,7.70
2018-03-31T20:57:48.625Z,7.80
2018-03-31T21:00:16.272Z,7.80
2018-03-31T21:02:43.899Z,7.90
2018-03-31T21:05:11.526Z,8.00
2018-03-31T21:07:40.141Z,8.10
2018-03-31T21:10:07.784Z,8.10
2018-03-31T21:12:36.165Z,8.10
2018-03-31T21:15:04.558Z,8.10
2018-03-31T21:17:32.197Z,8.10
2018-03-31T21:20:00.600Z,8.20
2018-03-31T21:22:28.234Z,8.20
2018-03-31T21:24:55.916Z,8.20
2018-03-31T21:27:24.398Z,8.10
2018-03-31T21:29:52.808Z,8.10
2018-03-31T21:32:20.428Z,8.00
2018-03-31T21:34:48.891Z,8.10
2018-03-31T21:37:16.564Z,8.10
2018-03-31T21:39:44.962Z,8.20
2018-03-31T21:42:13.354Z,8.30
2018-03-31T21:44:41.045Z,8.30
2018-03-31T21:47:08.677Z,8.30
2018-03-31T21:49:36.436Z,8.30
2018-03-31T21:52:04.047Z,8.30
2018-03-31T21:54:31.663Z,8.30
2018-03-31T21:56:59.306Z,8.20
2018-03-31T21:59:27.716Z,8.20
2018-03-31T22:01:55.331Z,8.10
2018-03-31T22:04:23.720Z,8.00
2018-03-31T22:06:52.151Z,7.90
2018-03-31T22:09:19.779Z,7.90
2018-03-31T22:11:47.398Z,7.80
2018-03-31T22:14:30.487Z,7.80
2018-03-31T22:16:58.096Z,7.70
2018-03-31T22:19:26.509Z,7.70
2018-03-31T22:21:54.241Z,7.70
2018-03-31T22:24:22.634Z,7.70
2018-03-31T22:26:50.259Z,7.70
2018-03-31T22:29:17.939Z,7.70
2018-03-31T22:31:45.593Z,7.70
2018-03-31T22:34:14.725Z,7.60
2018-03-31T22:36:42.369Z,7.60
2018-03-31T22:39:10.803Z,7.50
2018-03-31T22:41:38.389Z,7.50
2018-03-31T22:44:06.035Z,7.50
2018-03-31T22:46:33.681Z,7.50
2018-03-31T22:49:01.587Z,7.50
2018-03-31T22:51:29.204Z,7.40
2018-03-31T22:53:56.833Z,7.50
2018-03-31T22:56:24.466Z,7.50
2018-03-31T22:58:52.093Z,7.50
2018-03-31T23:01:19.719Z,7.50
2018-03-31T23:03:48.207Z,7.50
2018-03-31T23:06:15.921Z,7.50
2018-03-31T23:08:43.629Z,7.60
2018-03-31T23:11:11.248Z,7.60
2018-03-31T23:13:38.889Z,7.60
2018-03-31T23:16:06.519Z,7.60
2018-03-31T23:18:34.813Z,7.60
2018-03-31T23:21:02.423Z,7.60
2018-03-31T23:23:30.825Z,7.60
2018-03-31T23:25:58.446Z,7.60
2018-03-31T23:28:26.097Z,7.60
2018-03-31T23:30:53.713Z,7.60
2018-03-31T23:33:21.335Z,7.60
2018-03-31T23:35:50.640Z,7.60
2018-03-31T23:38:19.038Z,7.60
2018-03-31T23:40:47.591Z,7.60
2018-03-31T23:43:15.223Z,7.60
2018-03-31T23:45:43.514Z,7.60
2018-03-31T23:48:11.150Z,7.60
2018-03-31T23:50:38.837Z,7.50
2018-03-31T23:53:06.465Z,7.50
2018-03-31T23:55:34.178Z,7.50
2018-03-31T23:58:01.812Z,7.50
